Time;durP1;ratioP1;P1;durP2;ratioP2;P2;SDS_P1;SDS_P2;PMS_P1;PMS_P2;Temp;Humidity;BMP_temperature;BMP_pressure;BME280_temperature;BME280_humidity;BME280_pressure;Samples;Min_cycle;Max_cycle;Signal;HPM_P1;HPM_P2
2024/03/17 00:02:22;;;;;;;5.30;4.80;;;10.60;1.00;;;;;;5119955;28;20549;-39
2024/03/17 00:04:48;;;;;;;5.60;4.97;;;10.60;1.00;;;;;;5120426;28;20203;-39
2024/03/17 00:07:14;;;;;;;5.87;5.30;;;10.60;62.90;;;;;;5119111;28;20248;-38
2024/03/17 00:09:40;;;;;;;5.40;4.90;;;10.50;99.90;;;;;;5119839;28;20771;-36
2024/03/17 00:12:07;;;;;;;5.00;4.57;;;10.50;99.90;;;;;;5118879;28;20576;-38
2024/03/17 00:14:34;;;;;;;5.90;4.67;;;10.50;99.90;;;;;;5119063;28;20429;-38
2024/03/17 00:17:00;;;;;;;5.43;4.93;;;10.40;99.90;;;;;;5099709;28;20456;-38
2024/03/17 00:19:26;;;;;;;5.70;5.20;;;10.40;1.00;;;;;;5118068;28;20433;-38
2024/03/17 00:21:53;;;;;;;5.10;4.70;;;10.40;1.00;;;;;;5117935;28;20417;-41
2024/03/17 00:24:19;;;;;;;5.73;5.17;;;10.30;1.00;;;;;;5099150;28;20465;-39
2024/03/17 00:26:51;;;;;;;5.57;5.07;;;10.30;1.00;;;;;;5099487;28;20422;-38
2024/03/17 00:29:17;;;;;;;5.20;4.70;;;10.30;1.00;;;;;;5116956;28;20492;-38
2024/03/17 00:31:42;;;;;;;5.50;4.50;;;10.30;1.00;;;;;;5117138;28;20420;-39
2024/03/17 00:34:09;;;;;;;4.97;4.50;;;10.20;1.00;;;;;;5116875;28;20192;-38
2024/03/17 00:36:34;;;;;;;6.00;5.47;;;10.10;1.00;;;;;;5117217;28;20222;-37
2024/03/17 00:39:00;;;;;;;5.87;5.20;;;10.10;1.00;;;;;;5116497;28;20453;-37
2024/03/17 00:41:26;;;;;;;5.73;5.13;;;10.10;32.40;;;;;;5117576;28;20180;-39
2024/03/17 00:43:52;;;;;;;5.50;5.00;;;10.10;50.80;;;;;;5118167;28;20206;-38
2024/03/17 00:46:20;;;;;;;5.13;4.63;;;10.10;94.60;;;;;;5118378;28;20425;-38
2024/03/17 00:48:48;;;;;;;4.77;4.27;;;10.00;99.90;;;;;;5118086;28;20274;-39
2024/03/17 00:51:14;;;;;;;4.90;4.40;;;10.00;99.90;;;;;;5117925;28;20422;-41
2024/03/17 00:53:40;;;;;;;4.90;4.23;;;9.90;99.90;;;;;;5117384;28;20568;-39
2024/03/17 00:56:06;;;;;;;4.37;4.07;;;9.90;99.90;;;;;;5099893;28;20172;-39
2024/03/17 00:58:32;;;;;;;5.03;4.57;;;9.90;99.90;;;;;;5118404;28;20191;-38
2024/03/17 01:00:57;;;;;;;4.87;4.37;;;9.90;99.90;;;;;;5116533;28;20823;-38
2024/03/17 01:03:23;;;;;;;5.93;4.63;;;9.90;99.90;;;;;;5116635;28;20433;-37
2024/03/17 01:05:52;;;;;;;6.10;4.73;;;9.80;99.90;;;;;;5117064;28;20247;-40
2024/03/17 01:08:18;;;;;;;4.80;4.40;;;9.80;99.90;;;;;;5099560;28;20552;-38
2024/03/17 01:10:45;;;;;;;5.10;4.60;;;9.80;99.90;;;;;;5082445;28;20664;-39
2024/03/17 01:13:11;;;;;;;5.10;4.30;;;9.70;99.90;;;;;;5117687;28;20421;-39
2024/03/17 01:15:37;;;;;;;4.90;4.40;;;9.70;99.90;;;;;;5118013;28;20482;-37
2024/03/17 01:18:04;;;;;;;4.40;4.00;;;9.70;99.90;;;;;;5116942;28;20198;-38
2024/03/17 01:20:30;;;;;;;5.50;5.00;;;9.70;99.90;;;;;;5118708;28;20444;-38
2024/03/17 01:22:56;;;;;;;4.63;4.20;;;9.70;99.90;;;;;;5117902;28;20710;-37
2024/03/17 01:25:21;;;;;;;6.33;4.73;;;9.70;1.00;;;;;;5118129;28;20461;-38
2024/03/17 01:27:47;;;;;;;6.60;4.80;;;9.70;1.00;;;;;;5117801;28;20183;-39
2024/03/17 01:30:13;;;;;;;4.70;4.30;;;9.70;1.00;;;;;;5118161;28;20179;-39
2024/03/17 01:32:38;;;;;;;6.60;5.83;;;9.70;1.00;;;;;;5099601;28;20180;-38
2024/03/17 01:35:06;;;;;;;5.20;4.70;;;9.70;1.00;;;;;;5116576;28;20274;-39
2024/03/17 01:37:32;;;;;;;5.20;4.70;;;9.70;1.00;;;;;;5117938;28;20176;-39
2024/03/17 01:40:00;;;;;;;6.50;5.63;;;9.70;1.00;;;;;;5099963;28;20500;-39
2024/03/17 01:42:26;;;;;;;5.73;5.23;;;9.70;1.00;;;;;;5117986;28;20590;-36
2024/03/17 01:44:52;;;;;;;4.83;4.43;;;9.70;1.00;;;;;;5118268;28;20563;-38
2024/03/17 01:47:18;;;;;;;5.87;5.37;;;9.80;8.90;;;;;;5117779;28;20168;-37
2024/03/17 01:49:47;;;;;;;5.17;4.67;;;9.80;38.60;;;;;;5118257;28;20176;-38
2024/03/17 01:52:14;;;;;;;5.27;4.33;;;9.80;91.20;;;;;;5099916;28;20485;-37
2024/03/17 01:54:41;;;;;;;6.33;4.50;;;9.80;99.90;;;;;;5100145;28;20443;-37
2024/03/17 01:57:07;;;;;;;5.47;4.97;;;9.80;99.90;;;;;;5117996;28;20429;-37
2024/03/17 01:59:33;;;;;;;5.60;5.10;;;9.80;99.90;;;;;;5119242;28;20472;-37
2024/03/17 02:01:59;;;;;;;5.87;4.70;;;9.80;99.90;;;;;;5100096;28;20179;-37
2024/03/17 02:04:25;;;;;;;6.10;5.50;;;9.80;99.90;;;;;;5117480;28;20461;-38
2024/03/17 02:06:51;;;;;;;5.20;4.70;;;9.90;99.90;;;;;;5100142;28;20440;-37
2024/03/17 02:09:18;;;;;;;5.33;4.80;;;9.90;99.90;;;;;;5116672;28;20176;-38
2024/03/17 02:11:44;;;;;;;6.20;5.70;;;9.90;99.90;;;;;;5116154;28;20168;-38
2024/03/17 02:14:10;;;;;;;6.30;5.43;;;9.90;99.90;;;;;;5116126;28;20831;-37
2024/03/17 02:16:36;;;;;;;5.93;5.33;;;10.00;99.90;;;;;;5116646;28;20184;-38
2024/03/17 02:19:02;;;;;;;5.87;5.27;;;10.00;99.90;;;;;;5117137;28;20425;-37
2024/03/17 02:21:28;;;;;;;5.90;5.40;;;10.00;99.90;;;;;;5117621;28;20276;-37
2024/03/17 02:23:54;;;;;;;7.97;5.60;;;10.00;99.90;;;;;;5117179;28;20208;-37
2024/03/17 02:26:21;;;;;;;6.07;5.47;;;10.00;99.90;;;;;;5118079;28;20180;-36
2024/03/17 02:28:47;;;;;;;5.37;4.87;;;10.00;99.90;;;;;;5117281;28;20409;-37
2024/03/17 02:31:15;;;;;;;5.47;4.90;;;10.00;99.90;;;;;;5120757;28;20429;-39
2024/03/17 02:33:41;;;;;;;5.93;4.83;;;10.00;1.00;;;;;;5121621;28;20212;-36
2024/03/17 02:36:09;;;;;;;4.70;4.30;;;10.00;1.00;;;;;;5120813;28;20459;-37
2024/03/17 02:41:18;;;;;;;4.80;4.27;;;10.00;99.90;;;;;;5125370;28;21201;-37
2024/03/17 02:43:45;;;;;;;4.40;4.00;;;10.00;99.90;;;;;;5106835;28;20425;-39
2024/03/17 02:46:15;;;;;;;4.40;4.00;;;10.00;99.90;;;;;;5124840;28;20199;-38
2024/03/17 02:48:47;;;;;;;4.30;3.90;;;10.00;99.90;;;;;;5121420;28;20787;-37
2024/03/17 02:51:17;;;;;;;4.90;4.40;;;10.00;99.90;;;;;;5120511;28;20472;-37
2024/03/17 02:53:44;;;;;;;4.73;4.33;;;10.00;99.90;;;;;;5120712;28;20537;-37
2024/03/17 02:56:10;;;;;;;5.00;4.57;;;10.00;99.90;;;;;;5120153;28;20489;-37
2024/03/17 02:58:37;;;;;;;5.20;4.33;;;10.00;99.90;;;;;;5103047;28;20684;-37
2024/03/17 03:01:04;;;;;;;5.23;4.73;;;9.90;99.90;;;;;;5120484;28;20453;-37
2024/03/17 03:03:33;;;;;;;5.03;4.53;;;9.90;99.90;;;;;;5120405;28;20861;-37
2024/03/17 03:06:03;;;;;;;5.20;4.57;;;9.90;99.90;;;;;;5102299;28;20501;-37
2024/03/17 03:08:29;;;;;;;4.80;4.30;;;9.90;99.90;;;;;;5102752;28;20417;-37
2024/03/17 03:10:55;;;;;;;6.63;4.90;;;9.90;99.90;;;;;;5119691;28;20416;-37
2024/03/17 03:13:21;;;;;;;4.33;3.93;;;9.90;99.90;;;;;;5101629;28;20441;-38
2024/03/17 03:15:48;;;;;;;5.37;4.83;;;9.90;99.90;;;;;;5101686;28;20183;-37
2024/03/17 03:18:14;;;;;;;5.70;4.17;;;9.80;99.90;;;;;;5119905;28;20557;-39
2024/03/17 03:20:40;;;;;;;4.60;3.97;;;9.80;1.00;;;;;;5120001;28;20460;-37
2024/03/17 03:23:06;;;;;;;5.03;4.30;;;9.80;1.00;;;;;;5101800;28;20800;-38
2024/03/17 03:25:31;;;;;;;4.87;4.47;;;9.80;1.00;;;;;;5119840;28;20469;-37
2024/03/17 03:27:59;;;;;;;8.80;4.37;;;9.80;1.00;;;;;;5119670;28;20175;-39
2024/03/17 03:30:24;;;;;;;5.43;4.40;;;9.80;1.00;;;;;;5119789;28;20588;-37
2024/03/17 03:32:50;;;;;;;5.50;5.00;;;9.80;1.00;;;;;;5119890;28;20425;-38
2024/03/17 03:35:16;;;;;;;5.20;4.70;;;9.80;1.00;;;;;;5119878;28;20184;-37
2024/03/17 03:37:42;;;;;;;5.73;5.23;;;9.80;1.00;;;;;;5118881;28;20538;-37
2024/03/17 03:40:17;;;;;;;4.90;4.40;;;9.80;1.00;;;;;;5119351;28;20214;-38
2024/03/17 03:42:44;;;;;;;5.73;5.10;;;9.80;1.00;;;;;;5118434;28;20437;-37
2024/03/17 03:45:13;;;;;;;5.70;4.87;;;9.80;1.00;;;;;;5101515;28;20777;-37
2024/03/17 03:47:39;;;;;;;4.70;4.23;;;9.70;1.00;;;;;;5119378;28;20417;-38
2024/03/17 03:50:09;;;;;;;4.43;4.03;;;9.70;1.00;;;;;;5119517;28;20814;-38
2024/03/17 03:52:35;;;;;;;5.20;4.70;;;9.70;1.00;;;;;;5119007;28;20493;-37
2024/03/17 03:55:01;;;;;;;4.80;4.40;;;9.70;1.00;;;;;;5119553;28;20436;-37
2024/03/17 03:57:29;;;;;;;6.83;5.40;;;9.70;1.00;;;;;;5118226;28;20425;-45
2024/03/17 03:59:55;;;;;;;5.90;5.00;;;9.70;1.00;;;;;;5119447;28;20414;-38
2024/03/17 04:02:21;;;;;;;5.00;4.50;;;9.70;1.00;;;;;;5119629;28;20903;-36
2024/03/17 04:04:47;;;;;;;5.10;4.60;;;9.70;1.00;;;;;;5101426;28;20496;-37
2024/03/17 04:07:13;;;;;;;5.23;4.50;;;9.70;1.00;;;;;;5119207;28;20672;-37
2024/03/17 04:09:39;;;;;;;7.93;5.13;;;9.70;1.00;;;;;;5118649;28;20426;-37
2024/03/17 04:12:05;;;;;;;4.90;4.40;;;9.70;1.00;;;;;;5099895;28;20421;-38
2024/03/17 04:14:31;;;;;;;5.23;4.77;;;9.70;1.00;;;;;;5118320;28;20413;-37
2024/03/17 04:16:58;;;;;;;6.07;5.23;;;9.70;1.00;;;;;;5082750;28;20557;-38
2024/03/17 04:19:23;;;;;;;4.80;4.40;;;9.60;1.00;;;;;;5118224;28;20184;-36
2024/03/17 04:21:49;;;;;;;4.93;4.43;;;9.60;1.00;;;;;;5117726;28;20843;-38
2024/03/17 04:24:15;;;;;;;5.33;4.83;;;9.60;1.00;;;;;;5117123;28;20211;-37
2024/03/17 04:26:40;;;;;;;8.37;5.60;;;9.60;1.00;;;;;;5118185;28;20231;-38
2024/03/17 04:29:06;;;;;;;5.30;4.80;;;9.60;1.00;;;;;;5117650;28;20262;-37
2024/03/17 04:31:31;;;;;;;6.03;5.07;;;9.60;1.00;;;;;;5119098;28;20498;-37
2024/03/17 04:33:57;;;;;;;6.40;5.23;;;9.60;1.00;;;;;;5118209;28;20281;-36
2024/03/17 04:36:23;;;;;;;5.63;5.13;;;9.60;1.00;;;;;;5117974;28;20207;-37
2024/03/17 04:38:48;;;;;;;6.47;5.87;;;9.60;1.00;;;;;;5118099;28;20180;-38
2024/03/17 04:41:18;;;;;;;6.67;5.70;;;9.60;1.00;;;;;;5118466;28;20194;-37
2024/03/17 04:43:44;;;;;;;6.40;5.73;;;9.60;1.00;;;;;;5117016;28;20188;-40
2024/03/17 04:46:11;;;;;;;5.23;4.73;;;9.60;1.00;;;;;;5117127;28;20557;-37
2024/03/17 04:48:37;;;;;;;5.00;4.50;;;9.60;1.00;;;;;;5117133;28;20478;-37
2024/03/17 04:51:03;;;;;;;6.50;5.87;;;9.50;1.00;;;;;;5117114;28;20416;-39
2024/03/17 04:53:29;;;;;;;5.70;5.10;;;9.60;1.00;;;;;;5115855;28;20476;-37
2024/03/17 04:55:59;;;;;;;5.30;4.60;;;9.50;1.00;;;;;;5117332;28;20425;-37
2024/03/17 04:58:25;;;;;;;6.13;5.60;;;9.50;1.00;;;;;;5117744;28;20262;-38
2024/03/17 05:00:50;;;;;;;6.10;5.50;;;9.50;1.00;;;;;;5118290;28;20468;-36
2024/03/17 05:03:16;;;;;;;5.97;5.33;;;9.50;1.00;;;;;;5118350;28;20330;-37
2024/03/17 05:05:41;;;;;;;6.53;5.93;;;9.50;1.00;;;;;;5117813;28;20207;-38
2024/03/17 05:08:07;;;;;;;5.50;5.00;;;9.50;1.00;;;;;;5118077;28;20186;-37
2024/03/17 05:10:33;;;;;;;6.90;5.90;;;9.50;1.00;;;;;;5099830;28;20287;-37
2024/03/17 05:12:58;;;;;;;7.80;6.23;;;9.50;1.00;;;;;;5118235;28;20176;-38
2024/03/17 05:15:24;;;;;;;6.97;6.30;;;9.50;1.00;;;;;;5101278;28;20187;-38
2024/03/17 05:17:50;;;;;;;6.60;5.90;;;9.50;1.00;;;;;;5100005;28;20187;-36
2024/03/17 05:20:16;;;;;;;8.90;6.53;;;9.50;1.00;;;;;;5119413;28;20187;-37
2024/03/17 05:22:42;;;;;;;6.53;5.90;;;9.50;1.00;;;;;;5119520;28;20529;-37
2024/03/17 05:25:08;;;;;;;7.00;6.30;;;9.50;1.00;;;;;;5117845;28;20210;-39
2024/03/17 05:27:33;;;;;;;6.00;5.50;;;9.50;1.00;;;;;;5099777;28;20429;-37
2024/03/17 05:29:59;;;;;;;7.40;6.70;;;9.40;1.00;;;;;;5117952;28;20178;-38
2024/03/17 05:32:26;;;;;;;6.43;5.83;;;9.40;1.00;;;;;;5118319;28;20240;-37
2024/03/17 05:34:52;;;;;;;7.00;5.80;;;9.40;1.00;;;;;;5117805;28;20179;-39
2024/03/17 05:37:17;;;;;;;5.83;5.33;;;9.40;1.00;;;;;;5117787;28;20437;-37
2024/03/17 05:39:43;;;;;;;6.90;6.30;;;9.40;1.00;;;;;;5082482;28;20191;-38
2024/03/17 05:42:08;;;;;;;7.03;6.33;;;9.40;1.00;;;;;;5116391;28;20180;-38
2024/03/17 05:44:49;;;;;;;7.80;7.10;;;9.40;1.00;;;;;;5098459;28;20215;-38
2024/03/17 05:47:16;;;;;;;6.70;6.00;;;9.40;1.00;;;;;;5117419;28;20489;-38
2024/03/17 05:49:42;;;;;;;6.13;5.57;;;9.40;1.00;;;;;;5118117;28;20417;-37
2024/03/17 05:52:08;;;;;;;6.30;5.70;;;9.40;1.00;;;;;;5117390;28;20512;-38
2024/03/17 05:54:34;;;;;;;6.67;6.13;;;9.40;1.00;;;;;;5098364;28;20279;-39
2024/03/17 05:56:59;;;;;;;9.97;7.00;;;9.40;1.00;;;;;;5116223;28;20421;-38
2024/03/17 05:59:25;;;;;;;7.40;6.70;;;9.40;1.00;;;;;;5117120;28;20560;-37
2024/03/17 06:01:51;;;;;;;6.80;5.73;;;9.40;1.00;;;;;;5117524;28;20191;-37
2024/03/17 06:04:17;;;;;;;7.70;7.00;;;9.50;1.00;;;;;;5099977;28;20326;-38
2024/03/17 06:06:43;;;;;;;8.00;6.87;;;9.50;1.00;;;;;;5103311;28;20179;-38
2024/03/17 06:09:10;;;;;;;8.53;7.00;;;9.50;1.00;;;;;;5121862;28;20421;-38
2024/03/17 06:11:36;;;;;;;7.30;6.60;;;9.60;1.00;;;;;;5121605;28;20823;-38
2024/03/17 06:14:04;;;;;;;7.70;7.00;;;9.60;1.00;;;;;;5120479;28;20753;-37
2024/03/17 06:16:30;;;;;;;6.50;5.90;;;9.70;1.00;;;;;;5120807;28;20186;-38
2024/03/17 06:18:56;;;;;;;7.97;7.07;;;9.70;1.00;;;;;;5121027;28;20830;-38
2024/03/17 06:21:22;;;;;;;7.90;7.10;;;9.80;1.00;;;;;;5119552;28;20753;-38
2024/03/17 06:23:48;;;;;;;6.97;6.37;;;9.80;1.00;;;;;;5121271;28;20461;-38
2024/03/17 06:26:14;;;;;;;6.77;6.13;;;9.90;99.90;;;;;;5120479;28;20175;-37
2024/03/17 06:28:39;;;;;;;7.83;7.20;;;10.00;99.90;;;;;;5102892;28;20429;-40
2024/03/17 06:31:07;;;;;;;7.77;6.97;;;10.00;99.90;;;;;;5120938;28;20505;-38
2024/03/17 06:33:33;;;;;;;7.83;7.03;;;10.10;99.90;;;;;;5118635;28;20176;-38
2024/03/17 06:36:04;;;;;;;7.70;7.00;;;10.20;99.90;;;;;;5101680;28;20425;-40
2024/03/17 06:38:30;;;;;;;7.87;7.17;;;10.40;99.90;;;;;;5102473;28;20722;-38
2024/03/17 06:40:55;;;;;;;8.10;7.40;;;10.60;99.90;;;;;;5120548;28;20671;-38
2024/03/17 06:43:21;;;;;;;8.13;7.33;;;10.70;99.90;;;;;;5119665;28;20421;-38
2024/03/17 06:46:00;;;;;;;7.13;6.47;;;11.00;99.90;;;;;;5120488;28;20207;-38
2024/03/17 06:48:27;;;;;;;8.13;6.90;;;11.30;1.00;;;;;;5118833;28;20191;-37
2024/03/17 06:50:54;;;;;;;7.07;6.40;;;11.60;99.90;;;;;;5120045;28;20410;-38
2024/03/17 06:53:20;;;;;;;8.70;7.90;;;11.90;1.00;;;;;;5119923;28;20469;-39
2024/03/17 06:55:56;;;;;;;7.70;6.40;;;12.20;99.90;;;;;;5120575;28;20433;-39
2024/03/17 06:58:22;;;;;;;6.33;5.80;;;12.40;1.00;;;;;;5120832;28;20425;-39
2024/03/17 07:01:01;;;;;;;6.57;5.97;;;12.60;5.60;;;;;;5120749;28;20528;-38
2024/03/17 07:03:31;;;;;;;6.40;5.80;;;12.90;99.90;;;;;;5102648;28;20425;-39
2024/03/17 07:05:58;;;;;;;7.27;5.73;;;13.10;1.00;;;;;;5120873;28;20466;-39
2024/03/17 07:08:24;;;;;;;5.63;5.13;;;13.30;1.00;;;;;;5120369;28;20432;-44
2024/03/17 07:10:59;;;;;;;5.93;5.43;;;13.40;99.90;;;;;;5120330;28;20417;-37
2024/03/17 07:13:25;;;;;;;6.00;5.40;;;13.50;38.90;;;;;;5120047;28;20524;-38
2024/03/17 07:15:51;;;;;;;6.13;5.53;;;13.60;1.00;;;;;;5118300;28;20426;-41
2024/03/17 07:18:17;;;;;;;6.90;6.03;;;13.60;1.00;;;;;;5120383;28;20418;-38
2024/03/17 07:20:42;;;;;;;6.50;5.80;;;13.60;1.00;;;;;;5102697;28;20179;-39
2024/03/17 07:23:08;;;;;;;5.90;5.40;;;13.60;1.00;;;;;;5118859;28;20740;-37
2024/03/17 07:25:34;;;;;;;6.23;5.63;;;13.60;1.00;;;;;;5119648;28;20211;-39
2024/03/17 07:27:59;;;;;;;6.50;5.90;;;13.70;1.00;;;;;;5083620;28;20180;-38
2024/03/17 07:30:25;;;;;;;6.03;5.43;;;13.90;1.00;;;;;;5119535;28;20256;-39
2024/03/17 07:32:51;;;;;;;5.70;5.17;;;14.10;1.00;;;;;;5119628;28;20214;-38
2024/03/17 07:35:16;;;;;;;6.83;6.23;;;14.30;99.90;;;;;;5119427;28;20272;-37
2024/03/17 07:37:42;;;;;;;6.40;5.80;;;14.40;99.90;;;;;;5119405;28;20176;-38
2024/03/17 07:40:10;;;;;;;7.47;6.80;;;14.60;99.90;;;;;;5119747;28;20245;-37
2024/03/17 07:42:36;;;;;;;6.50;5.80;;;14.90;20.50;;;;;;5119327;28;20265;-38
2024/03/17 07:45:04;;;;;;;7.27;6.57;;;15.20;1.00;;;;;;5119670;28;20583;-39
2024/03/17 07:47:35;;;;;;;9.47;8.60;;;15.40;1.00;;;;;;5118270;28;20417;-39
2024/03/17 07:50:05;;;;;;;9.20;8.40;;;15.50;1.00;;;;;;5117796;28;20502;-38
2024/03/17 07:52:33;;;;;;;10.87;9.87;;;15.60;1.00;;;;;;5100571;28;20530;-38
2024/03/17 07:54:59;;;;;;;11.60;10.50;;;15.70;99.90;;;;;;5119868;28;20434;-38
2024/03/17 07:57:24;;;;;;;10.00;9.20;;;15.80;99.90;;;;;;5101022;28;20490;-37
2024/03/17 07:59:51;;;;;;;9.40;8.70;;;15.90;99.90;;;;;;5119049;28;20287;-37
2024/03/17 08:02:17;;;;;;;10.50;9.70;;;15.90;99.90;;;;;;5118988;28;20541;-43
2024/03/17 08:04:44;;;;;;;9.17;8.37;;;15.90;99.90;;;;;;5101359;28;20708;-39
2024/03/17 08:07:10;;;;;;;9.53;8.63;;;15.90;99.90;;;;;;5119516;28;20425;-39
2024/03/17 08:09:36;;;;;;;8.50;7.70;;;15.90;99.90;;;;;;5119126;28;20421;-39
2024/03/17 08:12:04;;;;;;;8.57;7.73;;;15.80;99.90;;;;;;5119092;28;20416;-37
2024/03/17 08:14:30;;;;;;;6.93;6.23;;;15.80;99.90;;;;;;5118721;28;20235;-37
2024/03/17 08:16:55;;;;;;;6.60;6.10;;;15.80;99.90;;;;;;5118401;28;20439;-38
2024/03/17 08:19:21;;;;;;;6.23;5.73;;;15.90;99.90;;;;;;5100652;28;20429;-38
2024/03/17 08:21:47;;;;;;;6.43;5.83;;;16.00;99.90;;;;;;5119697;28;20268;-38
2024/03/17 08:24:13;;;;;;;5.87;5.37;;;16.10;99.90;;;;;;5119013;28;20199;-38
2024/03/17 08:26:40;;;;;;;5.73;5.23;;;16.30;99.90;;;;;;5119162;28;20244;-38
2024/03/17 08:29:06;;;;;;;5.80;4.97;;;16.50;99.90;;;;;;5100708;28;20229;-39
2024/03/17 08:31:32;;;;;;;5.70;5.23;;;16.70;99.90;;;;;;5118406;28;20694;-38
2024/03/17 08:33:58;;;;;;;5.07;4.57;;;16.90;93.20;;;;;;5118465;28;20418;-37
2024/03/17 08:36:24;;;;;;;5.07;4.57;;;17.00;82.50;;;;;;5118047;28;20437;-39
2024/03/17 08:38:50;;;;;;;5.03;4.37;;;17.20;63.50;;;;;;5118241;28;20210;-37
2024/03/17 08:41:16;;;;;;;4.77;4.37;;;17.40;49.40;;;;;;5117631;28;20449;-38
2024/03/17 08:43:43;;;;;;;4.20;3.90;;;17.70;28.70;;;;;;5118055;28;20440;-40
2024/03/17 08:46:09;;;;;;;4.17;3.70;;;17.90;15.80;;;;;;5117455;28;20480;-38
2024/03/17 08:48:37;;;;;;;4.03;3.63;;;18.30;1.00;;;;;;5116187;28;20441;-39
2024/03/17 08:51:04;;;;;;;3.97;3.23;;;18.50;1.00;;;;;;5099277;28;20517;-37
2024/03/17 08:53:30;;;;;;;3.90;3.50;;;18.80;1.00;;;;;;5116802;28;20473;-36
2024/03/17 08:55:56;;;;;;;4.50;2.90;;;19.20;1.00;;;;;;5118261;28;20425;-39
2024/03/17 08:58:23;;;;;;;3.30;3.00;;;19.60;1.00;;;;;;5100530;28;20437;-38
2024/03/17 09:00:49;;;;;;;3.90;3.50;;;19.90;1.00;;;;;;5117713;28;20500;-39
2024/03/17 09:03:14;;;;;;;4.10;3.20;;;20.20;1.00;;;;;;5098773;28;20518;-40
2024/03/17 09:05:42;;;;;;;3.70;3.37;;;20.30;1.00;;;;;;5116510;28;20741;-37
2024/03/17 09:08:09;;;;;;;3.40;3.00;;;20.40;1.00;;;;;;5098277;28;20790;-39
2024/03/17 09:10:43;;;;;;;3.47;3.10;;;20.40;1.00;;;;;;5098628;28;20476;-41
2024/03/17 09:13:16;;;;;;;3.07;2.60;;;20.40;1.00;;;;;;5119337;28;20723;-41
2024/03/17 09:16:01;;;;;;;3.50;3.00;;;20.40;1.00;;;;;;5118709;28;20835;-39
2024/03/17 09:18:28;;;;;;;3.10;2.50;;;20.40;1.00;;;;;;5101962;28;20421;-38
2024/03/17 09:21:04;;;;;;;6.10;3.37;;;20.40;1.00;;;;;;5100970;28;20429;-38
2024/03/17 09:23:30;;;;;;;3.00;2.70;;;20.30;1.00;;;;;;5118500;28;20429;-40
2024/03/17 09:26:04;;;;;;;3.50;2.60;;;20.30;1.00;;;;;;5099903;28;20477;-40
2024/03/17 09:28:31;;;;;;;2.83;2.60;;;20.40;1.00;;;;;;5100230;28;20461;-39
2024/03/17 09:30:57;;;;;;;2.80;2.53;;;20.50;1.00;;;;;;5100530;28;20432;-38
2024/03/17 09:33:25;;;;;;;2.30;2.10;;;20.50;1.00;;;;;;5118382;28;20432;-39
2024/03/17 09:36:00;;;;;;;4.37;2.27;;;20.60;1.00;;;;;;5118442;28;20508;-38
2024/03/17 09:38:27;;;;;;;3.30;2.50;;;20.70;1.00;;;;;;5110847;28;20433;-40
2024/03/17 09:40:54;;;;;;;3.60;2.33;;;20.70;1.00;;;;;;5101833;28;20566;-40
2024/03/17 09:43:22;;;;;;;2.97;2.30;;;20.70;1.00;;;;;;5100098;28;20808;-40
2024/03/17 09:45:49;;;;;;;2.73;2.37;;;20.70;1.00;;;;;;5117820;28;20469;-39
2024/03/17 09:48:17;;;;;;;2.87;2.57;;;20.70;1.00;;;;;;5117575;28;20409;-40
2024/03/17 09:50:47;;;;;;;3.83;2.90;;;20.70;1.00;;;;;;5099257;28;20514;-38
2024/03/17 09:53:16;;;;;;;14.87;6.10;;;20.70;1.00;;;;;;5117382;28;20469;-44
2024/03/17 09:55:43;;;;;;;16.63;7.43;;;20.70;1.00;;;;;;5110064;28;20442;-44
2024/03/17 09:58:19;;;;;;;28.83;8.30;;;21.30;1.00;;;;;;5091015;28;20460;-43
2024/03/17 10:00:44;;;;;;;20.90;6.80;;;21.80;1.00;;;;;;5104127;28;20434;-42
2024/03/17 10:03:10;;;;;;;16.83;5.90;;;22.10;1.00;;;;;;5105781;28;20425;-43
2024/03/17 10:05:36;;;;;;;21.87;5.47;;;22.50;1.00;;;;;;5107033;28;20200;-43
2024/03/17 10:08:02;;;;;;;19.67;6.00;;;22.90;1.00;;;;;;5103792;28;20275;-45
2024/03/17 10:10:28;;;;;;;20.70;4.40;;;23.40;1.00;;;;;;5105153;28;20187;-43
2024/03/17 10:12:53;;;;;;;13.93;4.03;;;23.90;1.00;;;;;;5107839;28;20405;-45
2024/03/17 10:15:23;;;;;;;10.23;3.67;;;24.50;1.00;;;;;;5096678;28;20463;-45
2024/03/17 10:17:49;;;;;;;9.90;3.67;;;25.00;1.00;;;;;;5078418;28;20181;-46
2024/03/17 10:20:20;;;;;;;4.90;2.40;;;25.50;1.00;;;;;;5077814;28;20437;-44
2024/03/17 10:23:09;;;;;;;6.27;3.23;;;25.90;1.00;;;;;;5077522;28;20507;-45
2024/03/17 10:25:39;;;;;;;8.17;3.10;;;26.20;1.00;;;;;;5094318;28;20456;-47
2024/03/17 10:28:11;;;;;;;9.13;2.43;;;26.40;1.00;;;;;;5094092;28;20430;-45
2024/03/17 10:30:37;;;;;;;4.07;1.80;;;26.30;1.00;;;;;;5077144;28;20792;-47
2024/03/17 10:33:04;;;;;;;7.43;1.90;;;26.20;1.00;;;;;;5095033;28;20502;-44
2024/03/17 10:35:33;;;;;;;5.13;2.33;;;26.10;1.00;;;;;;5094121;28;20565;-43
2024/03/17 10:38:00;;;;;;;3.87;1.57;;;26.10;1.00;;;;;;5094588;28;20756;-43
2024/03/17 10:40:29;;;;;;;4.20;2.03;;;26.00;1.00;;;;;;5093960;28;20740;-44
2024/03/17 10:42:55;;;;;;;3.27;1.73;;;26.00;1.00;;;;;;5094538;28;20712;-46
2024/03/17 10:45:31;;;;;;;5.07;1.60;;;25.90;1.00;;;;;;5094545;28;20449;-44
2024/03/17 10:48:00;;;;;;;5.47;1.60;;;25.90;1.00;;;;;;5077703;28;20719;-43
2024/03/17 10:50:31;;;;;;;2.30;1.70;;;25.90;1.00;;;;;;5096347;28;20401;-45
2024/03/17 10:53:08;;;;;;;2.93;1.73;;;25.90;1.00;;;;;;5098249;28;20470;-45
2024/03/17 10:55:46;;;;;;;4.70;1.50;;;25.70;1.00;;;;;;5098765;28;20468;-45
2024/03/17 10:58:35;;;;;;;4.37;1.60;;;25.50;1.00;;;;;;5080059;28;20540;-44
2024/03/17 11:01:02;;;;;;;3.00;1.37;;;25.40;1.00;;;;;;5096886;28;20408;-45
2024/03/17 11:03:33;;;;;;;2.93;1.50;;;25.30;1.00;;;;;;5096322;28;20438;-43
2024/03/17 11:05:59;;;;;;;2.90;1.40;;;25.10;1.00;;;;;;5097811;28;20545;-44
2024/03/17 11:08:25;;;;;;;16.63;3.40;;;25.00;1.00;;;;;;5080514;28;20407;-46
2024/03/17 11:10:55;;;;;;;21.57;4.80;;;24.90;1.00;;;;;;5080643;28;20416;-45
2024/03/17 11:13:28;;;;;;;14.97;4.13;;;24.90;1.00;;;;;;5098119;28;20404;-43
2024/03/17 11:15:58;;;;;;;17.47;3.97;;;24.90;1.00;;;;;;5097230;28;20442;-43
2024/03/17 11:18:36;;;;;;;14.73;3.40;;;25.00;1.00;;;;;;5098240;28;20450;-44
2024/03/17 11:21:20;;;;;;;18.10;3.30;;;25.20;1.00;;;;;;5097594;28;20411;-44
2024/03/17 11:23:58;;;;;;;18.93;3.43;;;25.50;1.00;;;;;;5098784;28;20433;-44
2024/03/17 11:26:35;;;;;;;16.50;2.73;;;25.60;1.00;;;;;;5098914;28;20773;-42
2024/03/17 11:29:06;;;;;;;9.00;2.73;;;25.70;1.00;;;;;;5096647;28;20732;-44
2024/03/17 11:31:42;;;;;;;7.43;1.93;;;25.80;1.00;;;;;;5097973;28;20502;-43
2024/03/17 11:34:27;;;;;;;8.03;2.40;;;25.90;1.00;;;;;;5098341;28;20418;-43
2024/03/17 11:36:57;;;;;;;13.30;2.10;;;26.10;1.00;;;;;;5098658;28;20749;-43
2024/03/17 11:39:55;;;;;;;6.43;1.93;;;26.10;1.00;;;;;;5097592;28;20480;-43
2024/03/17 11:42:22;;;;;;;3.90;1.83;;;26.30;1.00;;;;;;5088577;28;20408;-44
2024/03/17 11:45:08;;;;;;;5.03;1.63;;;26.40;1.00;;;;;;5097219;28;20433;-42
2024/03/17 11:47:42;;;;;;;5.30;1.50;;;26.40;1.00;;;;;;5097224;28;20395;-43
2024/03/17 11:50:10;;;;;;;3.93;1.73;;;26.30;1.00;;;;;;5096431;28;20410;-45
2024/03/17 11:52:36;;;;;;;3.97;2.20;;;26.30;1.00;;;;;;5097759;28;20473;-46
2024/03/17 11:55:05;;;;;;;2.83;1.30;;;26.20;1.00;;;;;;5096016;28;20466;-42
2024/03/17 11:57:34;;;;;;;4.97;1.83;;;25.90;1.00;;;;;;5095634;28;20478;-43
2024/03/17 12:00:00;;;;;;;2.47;1.33;;;25.90;1.00;;;;;;5096594;28;20584;-43
2024/03/17 12:02:28;;;;;;;5.30;1.40;;;25.70;1.00;;;;;;5096578;28;20453;-44
2024/03/17 12:04:57;;;;;;;3.47;1.60;;;25.60;1.00;;;;;;5096941;28;20222;-42
2024/03/17 12:07:23;;;;;;;5.20;1.80;;;25.60;1.00;;;;;;5096623;28;20824;-46
2024/03/17 12:09:50;;;;;;;2.67;1.40;;;25.40;1.00;;;;;;5096944;28;20401;-43
2024/03/17 12:12:35;;;;;;;2.47;1.50;;;25.30;1.00;;;;;;5096701;28;20169;-43
2024/03/17 12:15:02;;;;;;;2.70;1.17;;;25.20;1.00;;;;;;5098283;28;20884;-44
2024/03/17 12:17:28;;;;;;;3.20;1.33;;;25.10;1.00;;;;;;5097692;28;20414;-43
2024/03/17 12:19:55;;;;;;;2.60;1.20;;;25.00;1.00;;;;;;5078928;28;20432;-46
2024/03/17 12:22:25;;;;;;;4.07;1.23;;;24.90;1.00;;;;;;5095457;28;20434;-42
2024/03/17 12:24:55;;;;;;;1.80;1.20;;;24.80;1.00;;;;;;5096304;28;20574;-42
2024/03/17 12:27:23;;;;;;;3.13;1.20;;;24.70;1.00;;;;;;5096507;28;20429;-42
2024/03/17 12:29:50;;;;;;;3.53;1.57;;;24.60;1.00;;;;;;5096990;28;20446;-50
2024/03/17 12:32:21;;;;;;;1.83;1.17;;;24.50;1.00;;;;;;5097342;28;20434;-43
2024/03/17 12:34:54;;;;;;;2.90;1.60;;;24.50;1.00;;;;;;5098035;28;20408;-43
2024/03/17 12:37:34;;;;;;;2.73;1.20;;;24.40;1.00;;;;;;5098313;28;20903;-42
2024/03/17 12:40:00;;;;;;;2.23;1.33;;;24.30;1.00;;;;;;5097733;28;20422;-42
2024/03/17 12:42:32;;;;;;;2.23;1.40;;;24.30;1.00;;;;;;5079290;28;20426;-41
2024/03/17 12:45:01;;;;;;;1.97;1.23;;;24.20;1.00;;;;;;5097223;28;20895;-45
2024/03/17 12:47:29;;;;;;;3.93;1.80;;;24.20;1.00;;;;;;5061920;28;20585;-43
2024/03/17 12:49:56;;;;;;;2.33;1.13;;;24.10;1.00;;;;;;5096142;28;20492;-45
2024/03/17 12:52:24;;;;;;;2.00;1.27;;;24.00;1.00;;;;;;5095596;28;20778;-43
2024/03/17 13:01:04;;;;;;;2.33;1.40;;;24.00;1.00;;;;;;5094099;28;20421;-45
2024/03/17 13:03:34;;;;;;;1.93;1.20;;;24.10;1.00;;;;;;5095176;28;20666;-43
2024/03/17 13:06:02;;;;;;;1.53;1.10;;;24.10;1.00;;;;;;5077659;28;20535;-43
2024/03/17 13:08:28;;;;;;;1.50;1.17;;;24.30;1.00;;;;;;5095139;28;20407;-44
2024/03/17 13:10:54;;;;;;;3.20;1.17;;;24.50;1.00;;;;;;5096477;28;20426;-43